Time;durP1;ratioP1;P1;durP2;ratioP2;P2;SDS_P1;SDS_P2;PMS_P1;PMS_P2;Temp;Humidity;BMP_temperature;BMP_pressure;BME280_temperature;BME280_humidity;BME280_pressure;Samples;Min_cycle;Max_cycle;Signal;HPM_P1;HPM_P2
2023/08/27 00:00:49;;;;;;;8.50;7.00;;;;;;;18.21;100.00;97094.98;110178;1242;70836;-70
2023/08/27 00:03:39;;;;;;;8.10;6.40;;;;;;;18.18;100.00;97097.08;110212;1247;69223;-70
2023/08/27 00:06:11;;;;;;;7.10;6.30;;;;;;;18.15;100.00;97097.73;110173;1242;68387;-68
2023/08/27 00:08:41;;;;;;;6.90;6.20;;;;;;;18.13;100.00;97093.25;110181;1242;59743;-68
2023/08/27 00:11:11;;;;;;;6.60;5.90;;;;;;;18.11;100.00;97094.47;110254;1243;59676;-68
2023/08/27 00:13:41;;;;;;;7.20;5.90;;;;;;;18.12;100.00;97096.68;110199;1242;71685;-67
2023/08/27 00:16:11;;;;;;;7.20;6.10;;;;;;;18.14;100.00;97098.10;110325;1242;69931;-69
2023/08/27 00:18:41;;;;;;;;;;;;;;;18.16;100.00;97099.61;110242;1241;68610;-70
2023/08/27 00:21:11;;;;;;;7.60;6.80;;;;;;;18.16;100.00;97093.20;110212;1242;59712;-69
2023/08/27 00:23:41;;;;;;;11.00;8.60;;;;;;;18.16;100.00;97093.83;110226;1242;59691;-69
2023/08/27 00:26:12;;;;;;;7.60;6.70;;;;;;;18.10;100.00;97090.73;110179;1242;70823;-69
2023/08/27 00:28:42;;;;;;;7.80;6.30;;;;;;;18.03;100.00;97088.83;110203;1245;69270;-67
2023/08/27 00:31:13;;;;;;;7.60;6.80;;;;;;;17.98;100.00;97084.11;110216;1243;68389;-70
2023/08/27 00:33:43;;;;;;;7.70;6.20;;;;;;;17.94;100.00;97082.08;110208;1244;59670;-69
2023/08/27 00:36:14;;;;;;;7.70;6.40;;;;;;;17.92;100.00;97084.65;110192;1241;59768;-70
2023/08/27 00:38:44;;;;;;;7.80;6.80;;;;;;;17.89;100.00;97081.61;110293;1240;71421;-70
2023/08/27 00:41:17;;;;;;;8.40;6.90;;;;;;;17.85;100.00;97084.67;110210;1250;68482;-70
2023/08/27 00:43:49;;;;;;;6.80;6.10;;;;;;;17.82;100.00;97089.73;110259;1242;68548;-69
2023/08/27 00:46:21;;;;;;;7.10;6.40;;;;;;;17.79;100.00;97090.33;110237;1242;59798;-69
2023/08/27 00:48:53;;;;;;;7.80;6.70;;;;;;;17.78;100.00;97090.69;110199;1245;59781;-70
2023/08/27 00:51:24;;;;;;;8.00;7.00;;;;;;;17.77;100.00;97086.40;110264;1241;71227;-71
2023/08/27 00:53:54;;;;;;;9.60;7.30;;;;;;;17.74;100.00;97083.52;110272;1243;68754;-69
2023/08/27 00:56:26;;;;;;;8.10;5.90;;;;;;;17.71;100.00;97082.20;110223;1241;69200;-69
2023/08/27 00:58:56;;;;;;;6.60;5.50;;;;;;;17.70;100.00;97081.77;110175;1245;59737;-69
2023/08/27 01:01:29;;;;;;;7.50;6.40;;;;;;;17.71;100.00;97082.60;110221;1241;59941;-69
2023/08/27 01:04:00;;;;;;;8.90;6.80;;;;;;;17.71;100.00;97082.73;110239;1243;71397;-69
2023/08/27 01:06:33;;;;;;;7.60;6.40;;;;;;;17.71;100.00;97084.55;110144;1244;69668;-68
2023/08/27 01:09:27;;;;;;;8.10;7.10;;;;;;;17.71;100.00;97086.66;110228;1242;69866;-68
2023/08/27 01:12:32;;;;;;;8.30;7.00;;;;;;;17.70;100.00;97076.73;110254;1242;59702;-70
2023/08/27 01:15:05;;;;;;;8.40;6.50;;;;;;;17.69;100.00;97073.13;110166;1245;59624;-70
2023/08/27 01:17:37;;;;;;;7.60;6.20;;;;;;;17.68;100.00;97070.89;110183;1241;70587;-69
2023/08/27 01:20:09;;;;;;;7.00;6.00;;;;;;;17.67;100.00;97065.23;110284;1241;68363;-69
2023/08/27 01:22:40;;;;;;;7.40;5.60;;;;;;;17.65;100.00;97063.89;110234;1241;69598;-69
2023/08/27 01:25:13;;;;;;;7.50;6.20;;;;;;;17.58;100.00;97062.66;110193;1240;59746;-68
2023/08/27 01:27:57;;;;;;;7.60;6.10;;;;;;;17.50;100.00;97059.58;110254;1241;59728;-69
2023/08/27 01:30:41;;;;;;;6.70;5.60;;;;;;;17.44;100.00;97053.92;110237;1248;71716;-68
2023/08/27 01:33:29;;;;;;;7.20;5.30;;;;;;;17.39;100.00;97052.33;110283;1242;67841;-70
2023/08/27 01:36:07;;;;;;;7.80;6.00;;;;;;;17.36;100.00;97049.55;110263;1241;69307;-69
2023/08/27 01:38:37;;;;;;;9.90;7.60;;;;;;;17.31;100.00;97049.34;110138;1245;59759;-69
2023/08/27 01:41:09;;;;;;;8.10;6.60;;;;;;;17.27;100.00;97050.81;110262;1241;59750;-69
2023/08/27 01:43:41;;;;;;;7.00;5.90;;;;;;;17.24;100.00;97049.50;110220;1241;71401;-69
2023/08/27 01:46:11;;;;;;;8.90;6.80;;;;;;;17.23;100.00;97049.64;110143;1246;69204;-69
2023/08/27 01:48:43;;;;;;;7.50;6.10;;;;;;;17.24;100.00;97051.64;110225;1243;69303;-69
2023/08/27 01:51:15;;;;;;;7.50;5.60;;;;;;;17.25;100.00;97056.50;110218;1242;59741;-69
2023/08/27 01:53:47;;;;;;;10.00;8.20;;;;;;;17.24;100.00;97061.81;110268;1241;59748;-70
2023/08/27 01:56:18;;;;;;;10.20;7.90;;;;;;;17.17;100.00;97063.54;110158;1253;71370;-69
2023/08/27 01:58:50;;;;;;;8.60;7.10;;;;;;;17.08;100.00;97057.08;110187;1240;68491;-69
2023/08/27 02:01:22;;;;;;;8.80;7.20;;;;;;;17.03;100.00;97055.42;110278;1241;68417;-69
2023/08/27 02:03:54;;;;;;;8.40;7.30;;;;;;;17.00;100.00;97051.55;110269;1242;59706;-69
2023/08/27 02:06:27;;;;;;;7.40;6.30;;;;;;;16.98;100.00;97045.40;110252;1242;59700;-69
2023/08/27 02:08:59;;;;;;;8.70;7.30;;;;;;;16.98;100.00;97046.16;110230;1243;70451;-70
2023/08/27 02:11:33;;;;;;;7.40;6.40;;;;;;;16.98;100.00;97043.00;110285;1243;69238;-69
2023/08/27 02:14:04;;;;;;;8.50;6.30;;;;;;;17.00;100.00;97046.63;110239;1242;69275;-70
2023/08/27 02:16:37;;;;;;;9.40;7.10;;;;;;;16.98;100.00;97048.94;110153;1246;59689;-70
2023/08/27 02:19:09;;;;;;;8.40;6.70;;;;;;;16.96;100.00;97051.44;110253;1242;59666;-69
2023/08/27 02:21:42;;;;;;;7.30;5.90;;;;;;;16.93;100.00;97047.73;110299;1243;71453;-69
2023/08/27 02:24:16;;;;;;;7.80;6.80;;;;;;;16.93;100.00;97048.09;110180;1246;68227;-69
2023/08/27 02:26:49;;;;;;;8.40;7.00;;;;;;;16.91;100.00;97050.13;110202;1243;68770;-69
2023/08/27 02:29:20;;;;;;;6.80;6.10;;;;;;;16.90;100.00;97050.09;110242;1241;59661;-69
2023/08/27 02:31:52;;;;;;;7.40;6.00;;;;;;;16.89;100.00;97054.61;110225;1247;59697;-70
2023/08/27 02:34:23;;;;;;;7.20;6.10;;;;;;;16.88;100.00;97052.69;110169;1246;71235;-70
2023/08/27 02:36:54;;;;;;;7.50;6.20;;;;;;;16.86;100.00;97055.42;110234;1241;69384;-68
2023/08/27 02:39:25;;;;;;;;;;;;;;;16.86;100.00;97055.09;110165;1245;68511;-69
2023/08/27 02:41:56;;;;;;;8.70;6.20;;;;;;;16.85;100.00;97062.48;110222;1241;59661;-69
2023/08/27 02:44:28;;;;;;;7.10;5.90;;;;;;;16.82;100.00;97065.73;110256;1243;59698;-69
2023/08/27 02:46:59;;;;;;;8.10;6.00;;;;;;;16.80;100.00;97061.50;110193;1241;71375;-68
2023/08/27 02:49:30;;;;;;;7.80;6.60;;;;;;;16.78;100.00;97056.79;110234;1244;69213;-69
2023/08/27 02:52:01;;;;;;;7.20;6.30;;;;;;;16.74;100.00;97056.66;110142;1246;69347;-69
2023/08/27 02:54:33;;;;;;;7.70;5.90;;;;;;;16.70;100.00;97054.11;110137;1251;59738;-70
2023/08/27 02:57:03;;;;;;;7.10;5.70;;;;;;;16.64;100.00;97056.42;110138;1243;59737;-70
2023/08/27 02:59:35;;;;;;;7.20;5.70;;;;;;;16.60;100.00;97058.13;110232;1243;71349;-70
2023/08/27 03:02:06;;;;;;;7.40;6.30;;;;;;;16.55;100.00;97061.29;110142;1245;69868;-68
2023/08/27 03:04:37;;;;;;;11.40;7.50;;;;;;;16.48;100.00;97066.86;110142;1242;68328;-70
2023/08/27 03:07:09;;;;;;;7.60;6.60;;;;;;;16.44;100.00;97070.52;110166;1243;60167;-70
2023/08/27 03:09:40;;;;;;;7.20;6.40;;;;;;;16.43;100.00;97068.69;110226;1241;59770;-70
2023/08/27 03:12:12;;;;;;;8.70;7.10;;;;;;;16.44;100.00;97065.89;110205;1242;71433;-70
2023/08/27 03:14:44;;;;;;;7.90;6.10;;;;;;;16.48;100.00;97065.91;110246;1240;68324;-69
2023/08/27 03:17:14;;;;;;;7.40;5.80;;;;;;;16.51;100.00;97065.23;110207;1243;69309;-70
2023/08/27 03:19:45;;;;;;;7.10;6.00;;;;;;;16.49;100.00;97066.96;110168;1241;59754;-69
2023/08/27 03:22:15;;;;;;;7.80;6.70;;;;;;;16.48;100.00;97065.90;110219;1245;59682;-70
2023/08/27 03:24:46;;;;;;;7.40;6.30;;;;;;;16.48;100.00;97070.25;110203;1243;71324;-70
2023/08/27 03:27:17;;;;;;;8.60;6.50;;;;;;;16.48;100.00;97069.70;110192;1241;68355;-69
2023/08/27 03:29:49;;;;;;;7.60;6.30;;;;;;;16.49;100.00;97070.10;110121;1244;69211;-68
2023/08/27 03:32:19;;;;;;;8.30;6.60;;;;;;;16.46;100.00;97068.17;110180;1242;59717;-68
2023/08/27 03:34:50;;;;;;;7.70;6.50;;;;;;;16.42;100.00;97072.39;110217;1242;59624;-69
2023/08/27 03:37:21;;;;;;;8.00;6.20;;;;;;;16.40;100.00;97071.80;110164;1245;70478;-69
2023/08/27 03:39:53;;;;;;;6.80;6.10;;;;;;;16.38;100.00;97080.66;110180;1246;69473;-70
2023/08/27 03:42:22;;;;;;;7.20;5.70;;;;;;;16.39;100.00;97075.29;110139;1242;69092;-69
2023/08/27 03:44:53;;;;;;;9.40;7.10;;;;;;;16.39;100.00;97078.85;110166;1242;59739;-70
2023/08/27 03:47:25;;;;;;;8.50;6.90;;;;;;;16.39;100.00;97073.61;110213;1242;59753;-69
2023/08/27 03:49:55;;;;;;;8.40;6.40;;;;;;;16.40;100.00;97072.83;110254;1242;69854;-69
2023/08/27 03:52:27;;;;;;;6.70;5.50;;;;;;;16.43;100.00;97075.67;110288;1240;68422;-70
2023/08/27 03:54:57;;;;;;;8.20;6.30;;;;;;;16.47;100.00;97079.19;110297;1246;69874;-70
2023/08/27 03:57:28;;;;;;;6.70;5.60;;;;;;;16.51;100.00;97079.44;110255;1242;59690;-69
2023/08/27 03:59:58;;;;;;;7.70;6.00;;;;;;;16.54;100.00;97082.96;110231;1242;59741;-69
2023/08/27 04:02:29;;;;;;;6.50;5.80;;;;;;;16.58;100.00;97085.39;110182;1245;70805;-69
2023/08/27 04:05:01;;;;;;;6.40;5.40;;;;;;;16.63;100.00;97089.30;110105;1244;69159;-69
2023/08/27 04:07:31;;;;;;;6.90;5.20;;;;;;;16.71;100.00;97087.77;110080;1245;69316;-70
2023/08/27 04:10:04;;;;;;;7.60;6.10;;;;;;;16.84;100.00;97089.77;110110;1241;59737;-68
2023/08/27 04:12:34;;;;;;;8.10;6.90;;;;;;;17.00;100.00;97093.23;109900;1245;59659;-70
2023/08/27 04:15:06;;;;;;;7.70;6.90;;;;;;;17.18;100.00;97090.19;109855;1245;71260;-70
2023/08/27 04:17:36;;;;;;;8.20;6.10;;;;;;;17.33;100.00;97089.61;110122;1243;69122;-71
2023/08/27 04:20:08;;;;;;;6.30;5.50;;;;;;;17.50;100.00;97084.81;110052;1245;69354;-69
2023/08/27 04:22:39;;;;;;;7.30;6.20;;;;;;;17.65;100.00;97085.56;110106;1242;59690;-69
2023/08/27 04:25:08;;;;;;;;;;;;;;;17.79;100.00;97084.55;110059;1245;59664;-69
2023/08/27 04:27:38;;;;;;;7.90;5.90;;;;;;;17.93;100.00;97084.61;109965;1244;71817;-70
2023/08/27 04:30:09;;;;;;;7.40;6.60;;;;;;;18.13;100.00;97090.95;110274;1251;68131;-70
2023/08/27 04:32:39;;;;;;;7.60;6.40;;;;;;;18.34;100.00;97091.86;110031;1243;69113;-70
2023/08/27 04:35:09;;;;;;;8.40;7.00;;;;;;;18.59;100.00;97085.06;110126;1245;59684;-69
2023/08/27 04:37:41;;;;;;;8.00;7.20;;;;;;;18.84;100.00;97082.39;110227;1241;59684;-69
2023/08/27 04:40:11;;;;;;;7.90;7.00;;;;;;;19.05;100.00;97080.98;110114;1244;70660;-69
2023/08/27 04:42:41;;;;;;;8.00;7.20;;;;;;;19.28;100.00;97076.95;110101;1245;69103;-70
2023/08/27 04:45:12;;;;;;;7.80;7.00;;;;;;;19.49;100.00;97077.92;109980;1244;68514;-68
2023/08/27 04:47:42;;;;;;;7.80;7.00;;;;;;;19.64;100.00;97079.37;109992;1245;59754;-69
2023/08/27 04:50:12;;;;;;;10.80;9.20;;;;;;;19.86;100.00;97077.77;110068;1245;59654;-69
2023/08/27 04:52:41;;;;;;;12.70;10.40;;;;;;;20.01;100.00;97078.14;110281;1246;71195;-70
2023/08/27 04:55:11;;;;;;;14.90;12.50;;;;;;;20.05;100.00;97082.38;110329;1245;69275;-70
2023/08/27 04:57:41;;;;;;;13.00;11.70;;;;;;;20.11;100.00;97085.09;109960;1246;68462;-69
2023/08/27 05:00:16;;;;;;;12.60;10.60;;;;;;;20.26;100.00;97083.66;110064;1245;59741;-69
2023/08/27 05:02:47;;;;;;;10.00;8.90;;;;;;;20.44;100.00;97080.11;110511;1241;59681;-69
2023/08/27 05:05:17;;;;;;;8.80;7.40;;;;;;;20.72;100.00;97079.06;110183;1245;72032;-69
2023/08/27 05:07:48;;;;;;;8.40;7.40;;;;;;;21.01;100.00;97076.66;110192;1242;69357;-67
2023/08/27 05:10:19;;;;;;;7.90;6.50;;;;;;;21.31;99.12;97081.01;110043;1245;69418;-67
2023/08/27 05:12:50;;;;;;;7.30;6.60;;;;;;;21.56;98.11;97084.56;110192;1242;59742;-69
2023/08/27 05:15:20;;;;;;;7.10;6.40;;;;;;;21.83;95.51;97088.16;110171;1241;59770;-69
2023/08/27 05:17:49;;;;;;;6.40;5.60;;;;;;;22.06;94.35;97092.17;110407;1242;70820;-69
2023/08/27 05:20:20;;;;;;;7.60;6.40;;;;;;;22.32;93.60;97091.19;110092;1243;69253;-68
2023/08/27 05:22:50;;;;;;;6.30;5.70;;;;;;;22.56;92.09;97091.23;110120;1241;70228;-69
2023/08/27 05:25:19;;;;;;;7.70;5.70;;;;;;;22.85;92.16;97091.42;110124;1245;59744;-70
2023/08/27 05:27:49;;;;;;;6.20;5.40;;;;;;;23.11;89.58;97092.86;110165;1243;59661;-69
2023/08/27 05:30:18;;;;;;;8.10;6.20;;;;;;;23.32;89.34;97095.27;110539;1242;71559;-70
2023/08/27 05:32:48;;;;;;;8.40;6.60;;;;;;;23.60;93.83;97096.81;110244;1242;69076;-68
2023/08/27 05:35:17;;;;;;;6.70;6.10;;;;;;;24.00;94.74;97097.43;110193;1243;69944;-70
2023/08/27 05:37:47;;;;;;;5.90;5.30;;;;;;;24.26;83.52;97094.48;110242;1243;59741;-69
2023/08/27 05:40:17;;;;;;;6.50;5.90;;;;;;;24.55;87.94;97098.02;110162;1243;59782;-70
2023/08/27 05:42:47;;;;;;;6.80;6.10;;;;;;;24.64;80.50;97097.20;110155;1245;71994;-69
2023/08/27 05:45:16;;;;;;;7.90;6.10;;;;;;;24.77;77.78;97094.88;110222;1242;69794;-68
2023/08/27 05:47:47;;;;;;;7.20;6.50;;;;;;;24.92;77.15;97093.93;110290;1242;69276;-69
2023/08/27 05:50:18;;;;;;;6.70;6.10;;;;;;;25.07;80.38;97087.82;110208;1242;60211;-66
2023/08/27 05:52:47;;;;;;;7.60;6.40;;;;;;;25.22;80.02;97085.39;110167;1252;59686;-68
2023/08/27 05:55:16;;;;;;;;;;;;;;;25.20;77.03;97086.52;110395;1241;71994;-69
2023/08/27 05:57:46;;;;;;;7.60;6.60;;;;;;;25.25;75.48;97086.40;110207;1244;69394;-69
2023/08/27 06:00:15;;;;;;;7.30;5.80;;;;;;;25.56;76.26;97085.89;110162;1245;69890;-67
2023/08/27 06:02:44;;;;;;;6.70;5.70;;;;;;;25.87;75.67;97091.14;110126;1241;60103;-68
2023/08/27 06:05:14;;;;;;;7.70;6.30;;;;;;;26.00;75.11;97098.24;110199;1243;59721;-68
2023/08/27 06:07:44;;;;;;;6.20;5.60;;;;;;;26.28;71.50;97099.23;110138;1244;71385;-66
2023/08/27 06:10:15;;;;;;;6.00;5.40;;;;;;;26.65;72.13;97101.95;110125;1246;69279;-68
2023/08/27 06:12:45;;;;;;;6.40;5.60;;;;;;;27.07;71.67;97095.59;110108;1244;68564;-68
2023/08/27 06:15:15;;;;;;;6.90;6.20;;;;;;;27.32;72.67;97097.77;110035;1248;59724;-69
2023/08/27 06:17:44;;;;;;;7.60;6.90;;;;;;;27.41;70.07;97095.02;110146;1245;59666;-68
2023/08/27 06:20:13;;;;;;;9.10;6.10;;;;;;;27.37;65.96;97095.45;110237;1243;72321;-67
2023/08/27 06:22:43;;;;;;;7.00;5.90;;;;;;;27.46;65.40;97097.02;110219;1242;69236;-68
2023/08/27 06:25:12;;;;;;;6.40;5.60;;;;;;;27.65;65.08;97097.07;110214;1241;68481;-68
2023/08/27 06:27:42;;;;;;;6.60;5.60;;;;;;;28.10;64.96;97096.72;110143;1243;59732;-67
2023/08/27 06:30:12;;;;;;;6.70;6.10;;;;;;;28.54;65.52;97096.11;110162;1242;59770;-67
2023/08/27 06:32:43;;;;;;;6.00;5.40;;;;;;;28.88;63.90;97100.59;110119;1245;70699;-66
2023/08/27 06:35:13;;;;;;;6.00;5.40;;;;;;;29.17;62.06;97098.67;110176;1245;69269;-68
2023/08/27 06:37:42;;;;;;;7.50;6.20;;;;;;;29.59;63.03;97088.77;110232;1242;69279;-68
2023/08/27 06:40:15;;;;;;;8.40;6.00;;;;;;;29.67;57.83;97088.51;110189;1244;59716;-68
2023/08/27 06:42:45;;;;;;;7.20;6.30;;;;;;;29.46;56.68;97087.90;110250;1242;59696;-68
2023/08/27 06:45:18;;;;;;;6.30;5.70;;;;;;;29.62;57.72;97088.73;110259;1247;71958;-69
2023/08/27 06:47:48;;;;;;;6.00;5.20;;;;;;;29.60;56.72;97088.64;110147;1245;69865;-70
2023/08/27 06:50:17;;;;;;;7.00;5.70;;;;;;;29.40;55.53;97085.70;110153;1244;68559;-67
2023/08/27 06:52:46;;;;;;;;;;;;;;;29.67;56.09;97084.13;110194;1242;60069;-67
2023/08/27 06:55:16;;;;;;;7.00;5.80;;;;;;;29.94;57.43;97080.80;110232;1241;59693;-68
2023/08/27 06:57:45;;;;;;;6.20;5.30;;;;;;;30.27;54.06;97077.94;110165;1246;71976;-66
2023/08/27 07:00:14;;;;;;;6.20;5.40;;;;;;;30.67;54.37;97078.22;110170;1248;69213;-68
2023/08/27 07:02:44;;;;;;;6.00;5.40;;;;;;;30.89;52.83;97084.65;110231;1240;67681;-67
2023/08/27 07:05:13;;;;;;;6.80;5.70;;;;;;;30.80;51.87;97084.32;109731;1242;665193;-67
2023/08/27 07:07:43;;;;;;;6.10;5.40;;;;;;;31.09;52.84;97081.73;110222;1242;59699;-67
2023/08/27 07:10:12;;;;;;;5.60;5.10;;;;;;;31.23;50.33;97080.72;110247;1242;71503;-69
2023/08/27 07:12:41;;;;;;;6.80;5.50;;;;;;;31.57;51.40;97075.14;110290;1243;69791;-66
2023/08/27 07:15:13;;;;;;;6.00;5.10;;;;;;;31.88;50.58;97074.56;110196;1241;69481;-68
2023/08/27 07:17:42;;;;;;;5.10;4.60;;;;;;;31.96;47.99;97071.23;110253;1242;59798;-66
2023/08/27 07:20:11;;;;;;;5.90;5.30;;;;;;;32.17;47.80;97075.14;110154;1243;59697;-64
2023/08/27 07:22:42;;;;;;;7.10;6.40;;;;;;;32.37;48.30;97075.70;110266;1241;72068;-66
2023/08/27 07:25:11;;;;;;;5.40;4.90;;;;;;;32.54;47.93;97077.58;110178;1244;69232;-65
2023/08/27 07:27:40;;;;;;;7.20;5.20;;;;;;;32.62;46.37;97077.30;110167;1240;69338;-69
2023/08/27 07:30:10;;;;;;;6.50;4.90;;;;;;;32.78;46.18;97076.65;110190;1244;59701;-68
2023/08/27 07:32:39;;;;;;;6.20;4.90;;;;;;;32.92;45.32;97072.30;110267;1242;59678;-68
2023/08/27 07:35:08;;;;;;;6.00;4.80;;;;;;;33.09;44.32;97074.63;110137;1245;70828;-69
2023/08/27 07:37:39;;;;;;;5.70;4.90;;;;;;;33.25;44.52;97072.75;110253;1243;70248;-66
2023/08/27 07:40:10;;;;;;;5.40;4.90;;;;;;;33.26;43.54;97071.48;110220;1242;69318;-68
2023/08/27 07:42:39;;;;;;;6.70;5.00;;;;;;;33.49;43.01;97068.73;110247;1242;59691;-68
2023/08/27 07:45:10;;;;;;;5.90;4.40;;;;;;;33.60;44.17;97068.92;110165;1241;59747;-68
2023/08/27 07:47:39;;;;;;;6.60;5.10;;;;;;;33.68;42.51;97071.27;110168;1244;71980;-68
2023/08/27 07:50:09;;;;;;;4.90;4.40;;;;;;;34.00;43.42;97070.92;110157;1247;69487;-68
2023/08/27 07:52:38;;;;;;;5.50;4.40;;;;;;;34.15;41.62;97074.94;110192;1242;69262;-67
2023/08/27 07:55:08;;;;;;;4.70;4.20;;;;;;;34.15;40.45;97071.20;110131;1240;59712;-65
2023/08/27 07:57:37;;;;;;;5.10;4.60;;;;;;;34.35;41.52;97069.08;110117;1244;59694;-67
2023/08/27 08:00:07;;;;;;;5.40;4.90;;;;;;;34.47;41.21;97064.64;110230;1241;70831;-68
2023/08/27 08:02:42;;;;;;;6.10;5.00;;;;;;;34.08;40.19;97061.36;110209;1243;69478;-67
2023/08/27 08:05:12;;;;;;;6.10;4.70;;;;;;;33.83;40.39;97057.76;110186;1242;69900;-65
2023/08/27 08:07:42;;;;;;;5.90;4.90;;;;;;;33.43;40.63;97063.55;110175;1240;59663;-67
2023/08/27 08:10:11;;;;;;;4.70;4.30;;;;;;;33.40;40.64;97061.86;110177;1243;59732;-66
2023/08/27 08:12:40;;;;;;;5.20;4.70;;;;;;;33.38;39.74;97068.56;110207;1242;72120;-66
2023/08/27 08:15:09;;;;;;;5.40;4.90;;;;;;;33.83;40.25;97067.40;110164;1241;69540;-67
2023/08/27 08:17:38;;;;;;;5.80;5.20;;;;;;;33.86;39.17;97063.94;110143;1242;69886;-67
2023/08/27 08:20:14;;;;;;;5.60;5.10;;;;;;;33.60;39.55;97061.98;110175;1243;59664;-67
2023/08/27 08:22:43;;;;;;;6.40;5.80;;;;;;;33.98;40.05;97060.92;110177;1240;59737;-68
2023/08/27 08:25:12;;;;;;;5.20;4.60;;;;;;;34.30;38.74;97059.80;110175;1242;71817;-67
2023/08/27 08:27:41;;;;;;;5.40;4.90;;;;;;;34.48;38.82;97058.70;110202;1240;68327;-65
2023/08/27 08:30:11;;;;;;;5.60;4.60;;;;;;;34.78;38.71;97057.77;110203;1250;69485;-67
2023/08/27 08:32:40;;;;;;;6.20;4.80;;;;;;;35.17;37.71;97059.35;110230;1248;59713;-65
2023/08/27 08:35:09;;;;;;;4.70;4.20;;;;;;;35.01;36.21;97059.23;110240;1242;59674;-65
2023/08/27 08:37:38;;;;;;;5.00;4.30;;;;;;;35.35;35.93;97064.20;110233;1242;71878;-66
2023/08/27 08:40:09;;;;;;;6.00;5.00;;;;;;;35.26;36.43;97063.20;110263;1242;69815;-68
2023/08/27 08:42:59;;;;;;;5.30;4.10;;;;;;;35.28;35.89;97070.48;110221;1243;69281;-69
2023/08/27 08:45:55;;;;;;;4.60;4.20;;;;;;;35.92;36.10;97062.91;110206;1248;59667;-68
2023/08/27 08:48:30;;;;;;;8.20;5.10;;;;;;;35.77;34.34;97062.20;110243;1242;59757;-66
2023/08/27 08:51:03;;;;;;;5.00;4.40;;;;;;;36.09;33.30;97057.05;110239;1242;71488;-64
2023/08/27 08:53:39;;;;;;;5.50;4.20;;;;;;;36.56;34.20;97060.89;110204;1243;70151;-65
2023/08/27 08:56:19;;;;;;;4.00;3.40;;;;;;;37.00;33.36;97056.65;110236;1242;69857;-65
2023/08/27 08:59:06;;;;;;;5.00;4.60;;;;;;;36.81;33.15;97054.33;110246;1241;59698;-66
2023/08/27 09:01:36;;;;;;;4.70;4.10;;;;;;;37.21;34.80;97049.60;110230;1241;59711;-67
2023/08/27 09:04:07;;;;;;;6.10;4.80;;;;;;;37.85;35.64;97044.05;110209;1243;71212;-67
2023/08/27 09:06:37;;;;;;;4.40;4.00;;;;;;;38.67;34.21;97037.09;110236;1240;68481;-67
2023/08/27 09:09:09;;;;;;;4.20;3.40;;;;;;;39.12;31.34;97039.65;110262;1242;68830;-65
2023/08/27 09:11:39;;;;;;;5.80;4.10;;;;;;;39.30;30.44;97037.61;110246;1241;59750;-67
2023/08/27 09:14:09;;;;;;;5.10;4.20;;;;;;;39.67;31.10;97030.61;110297;1241;59686;-65
2023/08/27 09:16:38;;;;;;;6.90;4.50;;;;;;;39.85;29.57;97031.17;110315;1240;71236;-67
2023/08/27 09:19:08;;;;;;;5.00;3.90;;;;;;;39.96;29.44;97027.37;110306;1242;69823;-64
2023/08/27 09:21:38;;;;;;;6.00;4.60;;;;;;;39.90;29.41;97027.56;110247;1249;69102;-67
2023/08/27 09:24:07;;;;;;;4.50;3.70;;;;;;;40.04;29.37;97023.41;110296;1244;59686;-67
2023/08/27 09:26:38;;;;;;;5.20;4.70;;;;;;;40.23;28.76;97021.23;110269;1242;60088;-67
2023/08/27 09:29:08;;;;;;;6.20;5.10;;;;;;;40.24;28.38;97013.91;110340;1242;71829;-65
2023/08/27 09:31:41;;;;;;;6.30;4.50;;;;;;;39.44;28.52;97010.92;110341;1241;69852;-67
2023/08/27 09:34:13;;;;;;;4.90;4.30;;;;;;;39.10;29.01;97007.55;110320;1241;69926;-65
2023/08/27 09:36:43;;;;;;;5.40;4.80;;;;;;;38.38;30.30;97002.67;110320;1241;59705;-69
2023/08/27 09:39:13;;;;;;;4.80;3.70;;;;;;;39.18;29.96;96996.35;110318;1241;59702;-68
2023/08/27 09:41:43;;;;;;;5.10;4.10;;;;;;;39.43;29.69;96991.87;110358;1242;70938;-68
2023/08/27 09:44:14;;;;;;;4.00;3.60;;;;;;;39.70;29.51;96985.39;110259;1241;69571;-68
2023/08/27 09:46:43;;;;;;;4.40;3.90;;;;;;;39.56;29.78;96986.04;110312;1241;69856;-67
2023/08/27 09:49:12;;;;;;;5.40;4.30;;;;;;;39.17;30.43;96980.83;110135;1244;59743;-68
2023/08/27 09:51:42;;;;;;;4.10;3.70;;;;;;;40.00;29.82;96978.29;110241;1241;59596;-67
2023/08/27 09:54:19;;;;;;;4.50;3.80;;;;;;;40.47;28.49;96971.06;110246;1241;71415;-67
2023/08/27 09:56:50;;;;;;;5.00;4.00;;;;;;;40.95;28.37;96973.36;110259;1249;69827;-67
2023/08/27 09:59:19;;;;;;;4.80;4.00;;;;;;;41.10;27.36;96973.77;110240;1242;69660;-67
2023/08/27 10:01:51;;;;;;;5.50;3.70;;;;;;;41.15;26.74;96971.27;110252;1242;59677;-67
2023/08/27 10:04:21;;;;;;;5.30;4.10;;;;;;;41.28;26.62;96971.21;110269;1248;60080;-68
2023/08/27 10:06:50;;;;;;;4.80;4.20;;;;;;;41.32;26.26;96971.09;110264;1242;71958;-67
2023/08/27 10:09:20;;;;;;;6.20;4.70;;;;;;;40.97;25.94;96966.27;110205;1242;69088;-67
2023/08/27 10:11:50;;;;;;;4.90;4.20;;;;;;;40.16;27.03;96959.08;110203;1242;69915;-67
2023/08/27 10:14:19;;;;;;;4.40;4.00;;;;;;;40.20;27.18;96956.61;110198;1244;59735;-67
2023/08/27 10:16:51;;;;;;;4.60;3.90;;;;;;;40.24;26.34;96949.41;110273;1242;59691;-67
2023/08/27 10:19:20;;;;;;;4.60;4.10;;;;;;;40.17;27.18;96944.83;110264;1242;71362;-67
2023/08/27 10:21:49;;;;;;;6.00;3.70;;;;;;;40.36;26.78;96943.11;110292;1242;69805;-67
2023/08/27 10:24:19;;;;;;;4.20;3.60;;;;;;;40.50;25.84;96942.79;110315;1242;68382;-67
2023/08/27 10:26:50;;;;;;;4.40;4.00;;;;;;;40.74;25.68;96940.48;110288;1242;59740;-68
2023/08/27 10:29:22;;;;;;;4.40;3.30;;;;;;;40.91;25.15;96934.91;110275;1242;59666;-68
2023/08/27 10:31:52;;;;;;;4.00;3.30;;;;;;;41.04;25.18;96933.15;110327;1241;71927;-67
2023/08/27 10:34:23;;;;;;;5.10;3.70;;;;;;;41.04;23.42;96935.15;110321;1242;69919;-68
2023/08/27 10:36:53;;;;;;;5.00;3.80;;;;;;;41.05;23.92;96932.71;110258;1242;69702;-67
2023/08/27 10:39:28;;;;;;;5.30;4.00;;;;;;;40.90;24.20;96930.60;110298;1242;59667;-67
2023/08/27 10:41:57;;;;;;;4.60;2.90;;;;;;;40.80;24.61;96922.94;110264;1240;59766;-67
2023/08/27 10:44:26;;;;;;;4.60;3.10;;;;;;;41.08;24.95;96922.52;110230;1241;71769;-67
2023/08/27 10:47:11;;;;;;;5.40;3.60;;;;;;;41.52;24.02;96916.08;110312;1242;69132;-67
2023/08/27 10:49:42;;;;;;;4.40;3.40;;;;;;;41.86;23.83;96910.53;110283;1242;69892;-68
2023/08/27 10:52:22;;;;;;;5.50;4.50;;;;;;;41.55;24.13;96905.06;110233;1242;59690;-68
2023/08/27 10:55:01;;;;;;;6.00;4.20;;;;;;;41.43;23.74;96908.11;110311;1242;59599;-68
2023/08/27 10:57:36;;;;;;;4.50;4.00;;;;;;;41.46;23.85;96906.34;110266;1242;71385;-69
2023/08/27 11:00:12;;;;;;;5.40;4.30;;;;;;;41.40;24.39;96905.67;110277;1242;68553;-68
2023/08/27 11:03:14;;;;;;;4.90;3.70;;;;;;;41.31;24.02;96905.24;110219;1241;68409;-67
2023/08/27 11:05:44;;;;;;;4.10;3.70;;;;;;;40.97;24.25;96904.41;109865;1240;59693;-68
2023/08/27 11:08:17;;;;;;;4.50;3.80;;;;;;;41.61;24.42;96902.70;110277;1242;59675;-67
2023/08/27 11:10:46;;;;;;;5.40;4.90;;;;;;;41.98;23.67;96895.29;110282;1240;71403;-68
2023/08/27 11:13:36;;;;;;;5.60;4.30;;;;;;;41.51;22.94;96883.92;110276;1242;69643;-67
2023/08/27 11:16:13;;;;;;;5.80;3.80;;;;;;;41.54;23.43;96880.19;110232;1243;68519;-69
2023/08/27 11:18:50;;;;;;;4.20;3.70;;;;;;;41.92;23.45;96875.82;110266;1241;59712;-67
2023/08/27 11:21:20;;;;;;;5.10;4.10;;;;;;;42.19;23.25;96870.23;110255;1240;59705;-68
2023/08/27 11:24:11;;;;;;;4.10;3.60;;;;;;;41.94;23.41;96869.90;110224;1241;71255;-68
2023/08/27 11:26:42;;;;;;;4.40;3.60;;;;;;;42.28;23.10;96868.17;110220;1242;68814;-70
2023/08/27 11:29:11;;;;;;;4.10;3.70;;;;;;;42.74;22.94;96861.33;110244;1249;69902;-68
2023/08/27 11:31:42;;;;;;;3.20;2.90;;;;;;;42.84;22.78;96856.92;110236;1242;59736;-66
2023/08/27 11:34:15;;;;;;;4.20;3.70;;;;;;;42.66;23.45;96855.13;110226;1242;59672;-66
2023/08/27 11:36:48;;;;;;;4.80;4.00;;;;;;;42.80;22.93;96851.73;110253;1240;71405;-68
2023/08/27 11:39:18;;;;;;;6.00;4.00;;;;;;;43.41;23.24;96850.11;110272;1247;68515;-70
2023/08/27 11:41:47;;;;;;;5.40;3.50;;;;;;;43.33;22.45;96855.45;110233;1242;69362;-68